Looneyville, West Virginia
Current Conditions -  °F | °C
As of 4:54 AM on Sunday 23 Nov 2014 (Local Time) from KCRW Reporting Station
Broken Clouds Broken Clouds  
Wind Chill: 40°   Ceiling: 9500
Heat Index: 40°   Visibility: 10mi
Dew Point: 30°   Wind: 0mph
Humidity: 68%   Direction: NA
Pressure: 30.1"   Gusts: NA
Location:  38.69°N, 81.28°W
Report Text: KCRW 230954Z 00000KT 10SM BKN095 04/M01 A3010 RMK AO2 SLP193 T00441011
Loading
Personal Weather Stations






























Interactive Weather Map New forecast layout! Learn more

10-Day Weather Forecast

Advertisements
Track Severe Weather on mobile